createdAt,value
2023-05-11T00:01:14.667Z,9.20
2023-05-11T00:06:17.414Z,13.80
2023-05-11T00:11:20.168Z,13.00
2023-05-11T00:16:22.761Z,14.20
2023-05-11T00:21:25.308Z,23.30
2023-05-11T00:26:27.809Z,13.00
2023-05-11T00:31:30.655Z,14.67
2023-05-11T00:36:33.710Z,15.47
2023-05-11T00:41:36.529Z,15.37
2023-05-11T00:46:39.196Z,13.93
2023-05-11T00:51:41.646Z,19.10
2023-05-11T00:56:44.161Z,10.20
2023-05-11T01:01:46.832Z,8.60
2023-05-11T01:07:04.342Z,9.27
2023-05-11T01:12:09.039Z,8.67
2023-05-11T01:17:19.531Z,18.27
2023-05-11T01:22:32.128Z,12.57
2023-05-11T01:27:55.753Z,14.97
2023-05-11T01:33:00.624Z,9.53
2023-05-11T01:38:04.639Z,12.90
2023-05-11T01:43:10.626Z,10.40
2023-05-11T01:48:20.728Z,14.80
2023-05-11T01:53:23.791Z,13.53
2023-05-11T01:58:27.771Z,11.23
2023-05-11T02:03:32.067Z,12.83
2023-05-11T02:08:35.028Z,17.77
2023-05-11T02:13:39.735Z,12.80
2023-05-11T02:18:43.039Z,24.00
2023-05-11T02:23:47.258Z,18.43
2023-05-11T02:28:50.567Z,15.83
2023-05-11T02:33:54.282Z,19.30
2023-05-11T02:39:03.744Z,12.67
2023-05-11T02:44:08.260Z,13.68
2023-05-11T02:49:12.051Z,14.00
2023-05-11T02:54:15.657Z,9.57
2023-05-11T02:59:23.652Z,11.27
2023-05-11T03:04:26.271Z,12.83
2023-05-11T03:09:29.226Z,31.47
2023-05-11T03:14:33.662Z,18.33
2023-05-11T03:19:37.450Z,15.97
2023-05-11T03:24:40.588Z,18.57
2023-05-11T03:29:44.949Z,24.17
2023-05-11T03:34:47.883Z,24.67
2023-05-11T03:39:56.831Z,20.43
2023-05-11T03:45:01.442Z,12.17
2023-05-11T03:50:08.103Z,8.30
2023-05-11T03:55:11.145Z,9.30
2023-05-11T04:00:14.188Z,18.57
2023-05-11T04:05:20.644Z,11.97
2023-05-11T04:10:23.921Z,11.40
2023-05-11T04:15:26.263Z,9.43
2023-05-11T04:20:28.715Z,10.73
2023-05-11T04:25:31.048Z,7.57
2023-05-11T04:30:33.545Z,8.77
2023-05-11T04:35:40.024Z,8.57
2023-05-11T04:40:43.715Z,8.17
2023-05-11T04:45:52.780Z,8.83
2023-05-11T04:50:59.826Z,7.57
2023-05-11T04:56:06.890Z,7.33
2023-05-11T05:01:09.632Z,6.80
2023-05-11T05:06:12.242Z,8.83
2023-05-11T05:11:14.905Z,6.07
2023-05-11T05:16:17.533Z,11.53
2023-05-11T05:21:20.158Z,5.00
2023-05-11T05:26:24.312Z,7.10
2023-05-11T05:31:27.302Z,9.60
2023-05-11T05:36:30.656Z,8.77
2023-05-11T05:41:33.115Z,6.47
2023-05-11T05:46:36.903Z,9.70
2023-05-11T05:51:39.854Z,3.87
2023-05-11T05:56:43.182Z,4.50
2023-05-11T06:01:48.381Z,3.83
2023-05-11T06:06:51.626Z,4.17
2023-05-11T06:11:54.530Z,5.20
2023-05-11T06:16:59.149Z,4.00
2023-05-11T06:22:06.727Z,3.80
2023-05-11T06:27:11.666Z,3.10
2023-05-11T06:32:15.426Z,4.53
2023-05-11T06:37:21.435Z,5.33
2023-05-11T06:42:26.119Z,2.67
2023-05-11T06:47:39.828Z,5.00
2023-05-11T06:52:42.390Z,2.53
2023-05-11T06:57:46.149Z,3.63
2023-05-11T07:02:48.865Z,4.53
2023-05-11T07:07:51.668Z,3.70
2023-05-11T07:12:54.283Z,2.33
2023-05-11T07:17:56.926Z,3.70
2023-05-11T07:22:59.736Z,2.20
2023-05-11T07:28:02.265Z,5.63
2023-05-11T07:33:04.847Z,2.67
2023-05-11T07:38:12.204Z,4.30
2023-05-11T07:43:14.747Z,3.63
2023-05-11T07:48:18.475Z,2.20
2023-05-11T07:53:21.050Z,2.50
2023-05-11T07:58:23.701Z,5.03
2023-05-11T08:03:26.254Z,4.37
2023-05-11T08:08:28.812Z,1.87
2023-05-11T08:13:32.080Z,2.20
2023-05-11T08:18:34.691Z,3.10
2023-05-11T08:23:37.629Z,4.10
2023-05-11T08:28:40.185Z,3.30
2023-05-11T08:33:42.795Z,3.97
2023-05-11T08:38:45.352Z,4.47
2023-05-11T08:43:49.228Z,2.77
2023-05-11T08:48:51.695Z,2.93
2023-05-11T08:53:54.995Z,6.43
2023-05-11T08:58:58.305Z,3.70
2023-05-11T09:04:01.042Z,3.53
2023-05-11T09:09:04.097Z,4.97
2023-05-11T09:14:06.865Z,6.47
2023-05-11T09:19:15.731Z,2.13
2023-05-11T09:24:20.856Z,1.47
2023-05-11T09:29:23.664Z,6.33
2023-05-11T09:34:27.108Z,3.23
2023-05-11T09:39:42.201Z,3.87
2023-05-11T09:44:58.075Z,2.23
2023-05-11T09:50:00.517Z,9.83
2023-05-11T09:55:11.136Z,10.27
2023-05-11T10:00:16.968Z,6.97
2023-05-11T10:05:21.950Z,6.00
2023-05-11T10:10:24.888Z,8.17
2023-05-11T10:15:31.037Z,2.80
2023-05-11T10:20:33.678Z,4.73
2023-05-11T10:25:38.105Z,2.10
2023-05-11T10:30:41.520Z,1.80
2023-05-11T10:35:46.801Z,7.80
2023-05-11T10:40:49.924Z,3.20
2023-05-11T10:46:17.317Z,3.40
2023-05-11T10:51:38.451Z,2.83
2023-05-11T10:56:53.711Z,2.70
2023-05-11T11:01:59.436Z,2.30
2023-05-11T11:07:09.247Z,1.93
2023-05-11T11:12:12.646Z,3.60
2023-05-11T11:17:15.244Z,1.37
2023-05-11T11:22:36.603Z,1.57
2023-05-11T11:27:42.107Z,2.03
2023-05-11T11:32:46.317Z,2.10
2023-05-11T11:38:07.315Z,1.37
2023-05-11T11:43:19.585Z,2.57
2023-05-11T11:48:24.418Z,1.50
2023-05-11T11:53:41.530Z,4.40
2023-05-11T11:58:44.803Z,3.03
2023-05-11T12:03:52.811Z,5.17
2023-05-11T12:08:55.489Z,4.37
2023-05-11T12:13:58.684Z,6.20
2023-05-11T12:19:02.293Z,5.03
2023-05-11T12:24:06.095Z,5.47
2023-05-11T12:29:09.509Z,5.10
2023-05-11T12:34:19.198Z,3.67
2023-05-11T12:39:26.734Z,4.83
2023-05-11T12:44:29.765Z,2.20
2023-05-11T12:49:32.755Z,4.97
2023-05-11T12:54:39.679Z,2.67
2023-05-11T12:59:42.312Z,2.70
2023-05-11T13:04:47.209Z,2.80
2023-05-11T13:10:00.364Z,3.83
2023-05-11T13:15:06.443Z,4.03
2023-05-11T13:20:22.616Z,3.30
2023-05-11T13:25:25.355Z,3.20
2023-05-11T13:30:28.667Z,1.77
2023-05-11T13:35:31.445Z,2.43
2023-05-11T13:40:35.339Z,1.60
2023-05-11T13:45:40.537Z,1.60
2023-05-11T13:50:43.284Z,3.93
2023-05-11T13:55:48.456Z,2.80
2023-05-11T14:01:06.710Z,1.70
2023-05-11T14:06:10.640Z,3.07
2023-05-11T14:11:14.657Z,1.83
2023-05-11T14:16:17.989Z,2.27
2023-05-11T14:21:21.156Z,1.70
2023-05-11T14:26:23.775Z,2.97
2023-05-11T14:31:26.586Z,3.60
2023-05-11T14:36:29.111Z,3.20
2023-05-11T14:41:31.602Z,3.50
2023-05-11T14:46:35.760Z,5.00
2023-05-11T14:51:39.675Z,5.10
2023-05-11T14:56:42.250Z,2.40
2023-05-11T15:01:44.934Z,3.90
2023-05-11T15:06:47.448Z,3.70
2023-05-11T15:11:50.019Z,2.00
2023-05-11T15:16:55.098Z,2.93
2023-05-11T15:21:57.840Z,3.43
2023-05-11T15:27:00.630Z,1.77
2023-05-11T15:32:03.211Z,3.60
2023-05-11T15:37:06.407Z,1.97
2023-05-11T15:42:08.830Z,2.00
2023-05-11T15:47:12.396Z,3.83
2023-05-11T15:52:14.845Z,4.23
2023-05-11T15:57:17.333Z,4.43
2023-05-11T16:02:19.917Z,3.67
2023-05-11T16:07:22.619Z,4.40
2023-05-11T16:12:25.192Z,2.33
2023-05-11T16:17:27.877Z,5.13
2023-05-11T16:22:31.562Z,6.43
2023-05-11T16:27:34.390Z,10.80
2023-05-11T16:32:37.191Z,10.30
2023-05-11T16:37:40.804Z,12.07
2023-05-11T16:42:43.637Z,7.27
2023-05-11T16:47:47.389Z,8.73
2023-05-11T16:52:50.024Z,10.93
2023-05-11T16:57:55.722Z,48.97
2023-05-11T17:02:58.835Z,39.90
2023-05-11T17:08:01.526Z,15.80
2023-05-11T17:13:04.661Z,8.20
2023-05-11T17:18:07.327Z,7.77
2023-05-11T17:23:09.888Z,9.33
2023-05-11T17:28:12.556Z,5.30
2023-05-11T17:33:15.892Z,3.30
2023-05-11T17:38:18.720Z,6.47
2023-05-11T17:43:21.191Z,3.63
2023-05-11T17:48:24.556Z,5.73
2023-05-11T17:53:27.743Z,9.40
2023-05-11T17:58:30.412Z,12.57
2023-05-11T18:03:33.117Z,10.13
2023-05-11T18:08:37.033Z,10.17
2023-05-11T18:13:40.008Z,8.00
2023-05-11T18:18:43.059Z,9.53
2023-05-11T18:23:46.612Z,27.50
2023-05-11T18:28:49.463Z,13.13
2023-05-11T18:33:52.116Z,9.37
2023-05-11T18:38:54.556Z,13.27
2023-05-11T18:43:57.283Z,12.53
2023-05-11T18:49:02.683Z,6.13
2023-05-11T18:54:05.523Z,6.47
2023-05-11T18:59:08.385Z,12.63
2023-05-11T19:04:10.913Z,9.33
2023-05-11T19:09:15.486Z,7.33
2023-05-11T19:14:21.338Z,6.17
2023-05-11T19:19:26.119Z,7.23
2023-05-11T19:24:30.139Z,6.00
2023-05-11T19:35:14.438Z,11.30
2023-05-11T19:45:33.122Z,10.43
2023-05-11T19:50:36.776Z,12.43
2023-05-11T19:55:41.033Z,16.40
2023-05-11T20:00:43.725Z,9.27
2023-05-11T20:05:47.216Z,9.40
2023-05-11T20:10:49.989Z,12.77
2023-05-11T20:15:52.527Z,16.63
2023-05-11T20:20:55.168Z,14.33
2023-05-11T20:25:57.664Z,14.00
2023-05-11T20:31:00.145Z,15.00
2023-05-11T20:36:02.819Z,10.90
2023-05-11T20:41:05.703Z,7.83
2023-05-11T20:46:08.110Z,6.40
2023-05-11T20:51:10.723Z,5.73
2023-05-11T20:56:13.880Z,6.67
2023-05-11T21:01:16.360Z,6.80
2023-05-11T21:06:19.165Z,6.07
2023-05-11T21:11:22.436Z,12.00
2023-05-11T21:16:25.002Z,9.87
2023-05-11T21:21:27.842Z,20.87
2023-05-11T21:26:30.783Z,13.17
2023-05-11T21:31:33.490Z,8.07
2023-05-11T21:36:36.484Z,9.43
2023-05-11T21:41:39.402Z,13.67
2023-05-11T21:46:42.109Z,11.00
2023-05-11T21:51:44.624Z,9.07
2023-05-11T21:56:47.079Z,9.87
2023-05-11T22:01:50.016Z,8.33
2023-05-11T22:06:52.741Z,8.67
2023-05-11T22:11:55.322Z,9.43
2023-05-11T22:16:57.900Z,7.27
2023-05-11T22:22:00.476Z,5.43
2023-05-11T22:27:03.136Z,8.23
2023-05-11T22:32:06.071Z,7.50
2023-05-11T22:37:08.801Z,7.07
2023-05-11T22:42:11.289Z,6.17
2023-05-11T22:47:13.999Z,10.93
2023-05-11T22:52:16.746Z,9.60
2023-05-11T22:57:19.284Z,8.33
2023-05-11T23:02:21.889Z,7.33
2023-05-11T23:07:24.605Z,8.90
2023-05-11T23:12:27.046Z,7.90
2023-05-11T23:17:29.688Z,9.90
2023-05-11T23:22:33.123Z,8.00
2023-05-11T23:27:35.636Z,7.03
2023-05-11T23:32:38.290Z,6.13
2023-05-11T23:37:41.070Z,9.97
2023-05-11T23:42:44.060Z,7.30
2023-05-11T23:47:46.791Z,5.80
2023-05-11T23:52:50.067Z,9.33
2023-05-11T23:57:52.568Z,17.30
